Time,TemperatureF,DewpointF,PressureIn,WindDirection,WindDirectionDegrees,WindSpeedMPH,WindSpeedGustMPH,Humidity,HourlyPrecipIn,Conditions,Clouds,dailyrainin,SolarRadiationWatts/m^2,SoftwareType,DateUTC
2013-01-31 00:03:00,18.1,14.0,30.43,SSE,167,1.0,2.0,85,0.00,,,0.00,0,weatherlink.com 1.10,2013-01-31 07:03:00,
2013-01-31 00:18:00,18.2,14.0,30.43,SW,219,1.0,3.0,85,0.00,,,0.00,0,weatherlink.com 1.10,2013-01-31 07:18:00,
2013-01-31 00:33:00,18.3,15.0,30.43,SW,223,2.0,4.0,86,0.00,,,0.00,0,weatherlink.com 1.10,2013-01-31 07:33:00,
2013-01-31 00:48:00,18.4,15.0,30.43,NE,42,0.0,4.0,86,0.00,,,0.00,0,weatherlink.com 1.10,2013-01-31 07:48:00,
2013-01-31 01:03:00,18.5,15.0,30.43,NW,311,1.0,3.0,86,0.00,,,0.00,0,weatherlink.com 1.10,2013-01-31 08:03:00,
2013-01-31 01:18:00,18.6,15.0,30.42,South,190,0.0,2.0,85,0.00,,,0.00,0,weatherlink.com 1.10,2013-01-31 08:18:00,
2013-01-31 01:33:00,18.6,15.0,30.41,West,270,0.0,4.0,84,0.00,,,0.00,0,weatherlink.com 1.10,2013-01-31 08:33:00,
2013-01-31 01:48:00,18.6,15.0,30.42,SSW,199,0.0,2.0,85,0.00,,,0.00,0,weatherlink.com 1.10,2013-01-31 08:48:00,
2013-01-31 02:03:00,18.5,15.0,30.42,SE,140,1.0,3.0,85,0.00,,,0.00,0,weatherlink.com 1.10,2013-01-31 09:03:00,
2013-01-31 02:18:00,18.4,15.0,30.41,SSW,197,0.0,3.0,85,0.00,,,0.00,0,weatherlink.com 1.10,2013-01-31 09:18:00,
2013-01-31 02:33:00,18.2,15.0,30.40,SE,137,0.0,2.0,86,0.00,,,0.00,0,weatherlink.com 1.10,2013-01-31 09:33:00,
2013-01-31 02:48:00,18.0,15.0,30.40,SE,131,0.0,2.0,87,0.00,,,0.00,0,weatherlink.com 1.10,2013-01-31 09:48:00,
2013-01-31 03:03:00,17.9,14.0,30.40,East,101,0.0,2.0,86,0.00,,,0.00,0,weatherlink.com 1.10,2013-01-31 10:03:00,
2013-01-31 03:18:00,17.9,14.0,30.39,ESE,109,0.0,4.0,85,0.00,,,0.00,0,weatherlink.com 1.10,2013-01-31 10:18:00,
2013-01-31 03:33:00,17.8,14.0,30.38,SW,230,0.0,2.0,85,0.00,,,0.00,0,weatherlink.com 1.10,2013-01-31 10:33:00,
2013-01-31 03:48:00,17.7,14.0,30.38,SW,226,0.0,0.0,85,0.00,,,0.00,0,weatherlink.com 1.10,2013-01-31 10:48:00,
2013-01-31 04:03:00,17.7,14.0,30.38,WNW,286,0.0,0.0,84,0.00,,,0.00,0,weatherlink.com 1.10,2013-01-31 11:03:00,
2013-01-31 04:18:00,17.4,13.0,30.38,SSW,211,2.0,3.0,84,0.00,,,0.00,0,weatherlink.com 1.10,2013-01-31 11:18:00,
2013-01-31 04:33:00,17.1,13.0,30.38,WSW,252,0.0,3.0,85,0.00,,,0.00,0,weatherlink.com 1.10,2013-01-31 11:33:00,
2013-01-31 04:48:00,16.3,13.0,30.38,West,261,0.0,3.0,85,0.00,,,0.00,0,weatherlink.com 1.10,2013-01-31 11:48:00,
2013-01-31 05:03:00,16.0,12.0,30.37,ESE,119,1.0,5.0,85,0.00,,,0.00,0,weatherlink.com 1.10,2013-01-31 12:03:00,
2013-01-31 05:18:00,17.1,13.0,30.38,WNW,301,0.0,3.0,85,0.00,,,0.00,0,weatherlink.com 1.10,2013-01-31 12:18:00,
2013-01-31 05:33:00,17.1,13.0,30.38,SSE,161,1.0,2.0,85,0.00,,,0.00,0,weatherlink.com 1.10,2013-01-31 12:33:00,
2013-01-31 05:48:00,17.5,14.0,30.37,NNE,15,0.0,5.0,84,0.00,,,0.00,0,weatherlink.com 1.10,2013-01-31 12:48:00,
2013-01-31 06:03:00,17.3,13.0,30.37,WSW,242,3.0,6.0,84,0.00,,,0.00,0,weatherlink.com 1.10,2013-01-31 13:03:00,
2013-01-31 06:18:00,17.1,13.0,30.38,WSW,252,0.0,6.0,85,0.00,,,0.00,0,weatherlink.com 1.10,2013-01-31 13:18:00,
2013-01-31 06:33:00,17.0,13.0,30.39,WSW,250,1.0,5.0,85,0.00,,,0.00,0,weatherlink.com 1.10,2013-01-31 13:33:00,
2013-01-31 06:48:00,17.0,13.0,30.38,WNW,288,3.0,5.0,85,0.00,,,0.00,0,weatherlink.com 1.10,2013-01-31 13:48:00,
2013-01-31 07:04:00,16.6,13.0,30.39,SW,222,5.0,6.0,87,0.00,,,0.00,0,weatherlink.com 1.10,2013-01-31 14:04:00,
2013-01-31 07:19:00,16.6,14.0,30.40,NW,319,0.0,6.0,88,0.00,,,0.00,0,weatherlink.com 1.10,2013-01-31 14:19:00,
2013-01-31 07:34:00,15.9,13.0,30.40,ESE,121,2.0,4.0,86,0.00,,,0.00,0,weatherlink.com 1.10,2013-01-31 14:34:00,
2013-01-31 07:49:00,15.8,13.0,30.39,ESE,103,1.0,2.0,87,0.00,,,0.00,0,weatherlink.com 1.10,2013-01-31 14:49:00,
2013-01-31 08:04:00,16.1,13.0,30.40,East,96,0.0,4.0,87,0.00,,,0.00,0,weatherlink.com 1.10,2013-01-31 15:04:00,
2013-01-31 08:19:00,16.7,13.0,30.40,ESE,117,1.0,4.0,85,0.00,,,0.00,0,weatherlink.com 1.10,2013-01-31 15:19:00,
2013-01-31 08:34:00,17.8,14.0,30.41,WSW,256,1.0,3.0,83,0.00,,,0.00,7,weatherlink.com 1.10,2013-01-31 15:34:00,
2013-01-31 08:49:00,18.1,14.0,30.42,SW,228,1.0,5.0,84,0.00,,,0.00,7,weatherlink.com 1.10,2013-01-31 15:49:00,
2013-01-31 09:04:00,18.6,14.0,30.42,WSW,257,0.0,4.0,83,0.00,,,0.00,11,weatherlink.com 1.10,2013-01-31 16:04:00,
2013-01-31 09:19:00,19.6,15.0,30.42,WSW,256,2.0,4.0,81,0.00,,,0.00,16,weatherlink.com 1.10,2013-01-31 16:19:00,
2013-01-31 09:34:00,20.2,15.0,30.42,SW,221,0.0,4.0,80,0.00,,,0.00,18,weatherlink.com 1.10,2013-01-31 16:34:00,
2013-01-31 09:49:00,21.0,15.0,30.42,North,360,4.0,6.0,78,0.00,,,0.00,19,weatherlink.com 1.10,2013-01-31 16:49:00,
2013-01-31 10:04:00,21.8,16.0,30.43,North,360,3.0,6.0,78,0.00,,,0.00,26,weatherlink.com 1.10,2013-01-31 17:04:00,
2013-01-31 10:19:00,22.6,16.0,30.42,North,360,1.0,8.0,77,0.00,,,0.00,28,weatherlink.com 1.10,2013-01-31 17:19:00,
2013-01-31 10:34:00,23.8,17.0,30.41,North,360,1.0,4.0,75,0.00,,,0.00,35,weatherlink.com 1.10,2013-01-31 17:34:00,
2013-01-31 10:49:00,24.7,18.0,30.41,North,360,0.0,4.0,75,0.00,,,0.00,37,weatherlink.com 1.10,2013-01-31 17:49:00,
2013-01-31 11:04:00,26.0,17.0,30.41,North,360,1.0,5.0,70,0.00,,,0.00,37,weatherlink.com 1.10,2013-01-31 18:04:00,
2013-01-31 11:19:00,26.9,17.0,30.40,North,360,3.0,4.0,66,0.00,,,0.00,40,weatherlink.com 1.10,2013-01-31 18:19:00,
2013-01-31 11:34:00,27.9,19.0,30.40,WSW,258,0.0,4.0,68,0.00,,,0.00,44,weatherlink.com 1.10,2013-01-31 18:34:00,
2013-01-31 11:49:00,28.3,17.0,30.40,WSW,248,2.0,7.0,63,0.00,,,0.00,47,weatherlink.com 1.10,2013-01-31 18:49:00,
2013-01-31 12:04:00,28.8,18.0,30.39,WSW,241,3.0,7.0,63,0.00,,,0.00,51,weatherlink.com 1.10,2013-01-31 19:04:00,
2013-01-31 12:19:00,28.5,18.0,30.38,West,261,0.0,6.0,66,0.00,,,0.00,58,weatherlink.com 1.10,2013-01-31 19:19:00,
2013-01-31 12:34:00,28.9,18.0,30.38,SW,223,0.0,8.0,64,0.00,,,0.00,72,weatherlink.com 1.10,2013-01-31 19:34:00,
2013-01-31 12:49:00,30.1,18.0,30.36,SW,229,2.0,4.0,60,0.01,,,0.01,90,weatherlink.com 1.10,2013-01-31 19:49:00,
2013-01-31 13:04:00,30.2,18.0,30.36,West,277,2.0,6.0,61,0.01,,,0.01,109,weatherlink.com 1.10,2013-01-31 20:04:00,
2013-01-31 13:20:00,30.1,18.0,30.36,WSW,257,1.0,4.0,62,0.03,,,0.03,84,weatherlink.com 1.10,2013-01-31 20:20:00,
2013-01-31 13:35:00,30.4,18.0,30.35,West,275,3.0,5.0,60,0.04,,,0.04,111,weatherlink.com 1.10,2013-01-31 20:35:00,
2013-01-31 13:54:00,31.1,18.0,30.34,SW,235,0.0,4.0,58,0.04,,,0.05,111,weatherlink.com 1.10,2013-01-31 20:54:00,
2013-01-31 14:05:00,32.2,17.0,30.33,West,273,1.0,4.0,54,0.05,,,0.06,111,weatherlink.com 1.10,2013-01-31 21:05:00,
2013-01-31 14:20:00,32.8,15.0,30.33,WNW,298,1.0,3.0,49,0.05,,,0.08,443,weatherlink.com 1.10,2013-01-31 21:20:00,
2013-01-31 14:35:00,32.8,16.0,30.33,WNW,299,0.0,2.0,51,0.06,,,0.10,548,weatherlink.com 1.10,2013-01-31 21:35:00,
2013-01-31 14:50:00,32.5,17.0,30.32,West,270,2.0,3.0,54,0.06,,,0.11,237,weatherlink.com 1.10,2013-01-31 21:50:00,
2013-01-31 15:05:00,32.9,18.0,30.33,WSW,239,0.0,4.0,55,0.06,,,0.12,160,weatherlink.com 1.10,2013-01-31 22:05:00,
2013-01-31 15:21:00,32.3,18.0,30.33,WNW,285,1.0,4.0,57,0.04,,,0.12,339,weatherlink.com 1.10,2013-01-31 22:21:00,
2013-01-31 15:36:00,32.4,19.0,30.34,WNW,299,0.0,5.0,57,0.02,,,0.13,381,weatherlink.com 1.10,2013-01-31 22:36:00,
2013-01-31 15:51:00,31.8,18.0,30.34,West,275,2.0,4.0,56,0.03,,,0.14,165,weatherlink.com 1.10,2013-01-31 22:51:00,
2013-01-31 16:06:00,31.4,18.0,30.35,North,360,3.0,3.0,59,0.03,,,0.15,183,weatherlink.com 1.10,2013-01-31 23:06:00,
2013-01-31 16:21:00,30.9,18.0,30.35,North,360,0.0,4.0,58,0.04,,,0.16,47,weatherlink.com 1.10,2013-01-31 23:21:00,
2013-01-31 16:36:00,29.9,18.0,30.35,North,360,0.0,3.0,61,0.04,,,0.17,35,weatherlink.com 1.10,2013-01-31 23:36:00,
2013-01-31 16:52:00,29.2,19.0,30.35,North,360,2.0,4.0,66,0.03,,,0.17,30,weatherlink.com 1.10,2013-01-31 23:52:00,
2013-01-31 17:06:00,28.3,19.0,30.36,NNW,330,0.0,5.0,69,0.02,,,0.17,21,weatherlink.com 1.10,2013-02-01 00:06:00,
2013-01-31 17:21:00,26.9,19.0,30.36,WNW,284,0.0,2.0,71,0.01,,,0.17,5,weatherlink.com 1.10,2013-02-01 00:21:00,
2013-01-31 17:36:00,26.2,18.0,30.36,WSW,244,0.0,4.0,71,0.00,,,0.17,0,weatherlink.com 1.10,2013-02-01 00:36:00,
2013-01-31 17:52:00,26.5,18.0,30.36,South,180,1.0,5.0,70,0.00,,,0.17,0,weatherlink.com 1.10,2013-02-01 00:52:00,
2013-01-31 18:07:00,26.7,18.0,30.37,West,263,0.0,5.0,69,0.00,,,0.17,0,weatherlink.com 1.10,2013-02-01 01:07:00,
2013-01-31 18:21:00,25.0,17.0,30.37,West,263,0.0,0.0,73,0.00,,,0.17,0,weatherlink.com 1.10,2013-02-01 01:21:00,
2013-01-31 18:37:00,24.3,17.0,30.36,ESE,119,1.0,2.0,75,0.00,,,0.17,0,weatherlink.com 1.10,2013-02-01 01:37:00,
2013-01-31 18:52:00,25.3,17.0,30.36,SE,144,0.0,5.0,72,0.00,,,0.17,0,weatherlink.com 1.10,2013-02-01 01:52:00,
2013-01-31 19:07:00,25.2,18.0,30.35,NE,55,0.0,2.0,74,0.00,,,0.17,0,weatherlink.com 1.10,2013-02-01 02:07:00,
2013-01-31 19:22:00,24.2,18.0,30.35,East,94,0.0,0.0,76,0.00,,,0.17,0,weatherlink.com 1.10,2013-02-01 02:22:00,
2013-01-31 19:38:00,23.7,18.0,30.35,ENE,61,0.0,1.0,78,0.00,,,0.17,0,weatherlink.com 1.10,2013-02-01 02:38:00,
2013-01-31 19:52:00,23.2,18.0,30.35,ENE,63,0.0,1.0,79,0.00,,,0.17,0,weatherlink.com 1.10,2013-02-01 02:52:00,
2013-01-31 20:07:00,22.9,18.0,30.35,East,79,0.0,1.0,80,0.00,,,0.17,0,weatherlink.com 1.10,2013-02-01 03:07:00,
2013-01-31 20:22:00,23.2,18.0,30.34,SE,138,0.0,2.0,79,0.00,,,0.17,0,weatherlink.com 1.10,2013-02-01 03:22:00,
2013-01-31 20:38:00,21.6,17.0,30.34,East,98,1.0,2.0,83,0.00,,,0.17,0,weatherlink.com 1.10,2013-02-01 03:38:00,
2013-01-31 20:52:00,22.5,17.0,30.33,ESE,103,0.0,2.0,80,0.00,,,0.17,0,weatherlink.com 1.10,2013-02-01 03:52:00,
2013-01-31 21:08:00,22.2,17.0,30.32,ESE,103,0.0,2.0,81,0.00,,,0.17,0,weatherlink.com 1.10,2013-02-01 04:08:00,
2013-01-31 21:23:00,22.4,17.0,30.32,ESE,103,0.0,0.0,80,0.00,,,0.17,0,weatherlink.com 1.10,2013-02-01 04:23:00,
2013-01-31 21:38:00,21.7,17.0,30.31,SSE,151,0.0,0.0,81,0.00,,,0.17,0,weatherlink.com 1.10,2013-02-01 04:38:00,
2013-01-31 21:53:00,20.0,16.0,30.32,ESE,121,0.0,3.0,83,0.00,,,0.17,0,weatherlink.com 1.10,2013-02-01 04:53:00,
2013-01-31 22:08:00,20.7,17.0,30.31,ESE,121,0.0,1.0,84,0.00,,,0.17,0,weatherlink.com 1.10,2013-02-01 05:08:00,
2013-01-31 22:23:00,20.6,16.0,30.32,ESE,121,0.0,0.0,83,0.00,,,0.17,0,weatherlink.com 1.10,2013-02-01 05:23:00,
2013-01-31 22:38:00,21.3,16.0,30.32,ESE,121,1.0,2.0,81,0.00,,,0.17,0,weatherlink.com 1.10,2013-02-01 05:38:00,
2013-01-31 22:53:00,21.3,16.0,30.31,ESE,113,0.0,4.0,81,0.00,,,0.17,0,weatherlink.com 1.10,2013-02-01 05:53:00,
2013-01-31 23:08:00,21.4,16.0,30.31,SSE,157,0.0,2.0,81,0.00,,,0.17,0,weatherlink.com 1.10,2013-02-01 06:08:00,
2013-01-31 23:23:00,20.4,15.0,30.31,East,86,0.0,2.0,81,0.00,,,0.17,0,weatherlink.com 1.10,2013-02-01 06:23:00,
2013-01-31 23:39:00,20.7,16.0,30.31,SSE,150,0.0,2.0,81,0.00,,,0.17,0,weatherlink.com 1.10,2013-02-01 06:39:00,
2013-01-31 23:54:00,20.5,15.0,30.31,SE,142,0.0,2.0,80,0.00,,,0.17,0,weatherlink.com 1.10,2013-02-01 06:54:00,